createdAt,value
2022-10-18T00:02:11.988Z,8.42
2022-10-18T00:04:38.645Z,8.36
2022-10-18T00:07:05.278Z,8.53
2022-10-18T00:09:32.016Z,8.36
2022-10-18T00:11:58.780Z,8.26
2022-10-18T00:14:25.380Z,8.04
2022-10-18T00:16:52.025Z,8.12
2022-10-18T00:19:18.607Z,8.12
2022-10-18T00:24:16.861Z,8.21
2022-10-18T00:26:43.565Z,8.09
2022-10-18T00:29:13.954Z,8.11
2022-10-18T00:31:41.071Z,8.32
2022-10-18T00:34:12.159Z,8.38
2022-10-18T00:36:39.158Z,8.32
2022-10-18T00:39:07.404Z,8.24
2022-10-18T00:41:35.718Z,8.08
2022-10-18T00:44:11.908Z,8.17
2022-10-18T00:46:47.541Z,8.10
2022-10-18T00:49:33.472Z,8.31
2022-10-18T00:52:12.560Z,8.30
2022-10-18T00:54:41.815Z,7.96
2022-10-18T00:57:09.170Z,7.75
2022-10-18T00:59:36.742Z,8.01
2022-10-18T01:02:04.267Z,8.12
2022-10-18T01:04:31.053Z,7.86
2022-10-18T01:07:26.004Z,8.38
2022-10-18T01:10:21.410Z,8.51
2022-10-18T01:12:53.343Z,8.41
2022-10-18T01:15:29.175Z,8.57
2022-10-18T01:18:05.008Z,8.63
2022-10-18T01:21:02.027Z,8.31
2022-10-18T01:23:40.705Z,8.42
2022-10-18T01:26:10.321Z,8.30
2022-10-18T01:28:51.986Z,8.26
2022-10-18T01:31:33.429Z,8.24
2022-10-18T01:34:04.142Z,8.10
2022-10-18T01:36:40.647Z,7.99
2022-10-18T01:39:10.098Z,7.90
2022-10-18T01:41:39.576Z,7.90
2022-10-18T01:44:08.910Z,7.87
2022-10-18T01:46:36.677Z,7.53
2022-10-18T01:49:04.389Z,7.61
2022-10-18T01:51:32.456Z,7.71
2022-10-18T01:53:59.644Z,7.51
2022-10-18T01:56:54.115Z,7.57
2022-10-18T01:59:29.305Z,7.40
2022-10-18T02:02:21.004Z,7.50
2022-10-18T02:05:11.849Z,7.70
2022-10-18T02:08:12.647Z,7.65
2022-10-18T02:10:53.457Z,7.32
2022-10-18T02:13:22.269Z,7.46
2022-10-18T02:15:52.530Z,7.56
2022-10-18T02:18:23.926Z,7.32
2022-10-18T02:20:51.599Z,7.15
2022-10-18T02:23:21.989Z,7.13
2022-10-18T02:25:48.877Z,7.36
2022-10-18T02:28:15.938Z,7.20
2022-10-18T02:30:49.765Z,7.34
2022-10-18T02:33:39.685Z,7.42
2022-10-18T02:36:28.327Z,7.41
2022-10-18T02:39:01.705Z,7.53
2022-10-18T02:41:28.696Z,7.59
2022-10-18T02:43:55.394Z,7.62
2022-10-18T02:46:22.197Z,7.56
2022-10-18T02:48:48.968Z,7.56
2022-10-18T02:51:15.937Z,7.60
2022-10-18T02:53:42.670Z,7.50
2022-10-18T02:56:09.570Z,7.62
2022-10-18T02:58:36.275Z,7.53
2022-10-18T03:01:02.997Z,7.51
2022-10-18T03:03:29.612Z,7.44
2022-10-18T03:05:56.296Z,7.41
2022-10-18T03:08:22.977Z,7.44
2022-10-18T03:10:49.658Z,7.58
2022-10-18T03:13:16.329Z,7.69
2022-10-18T03:15:42.987Z,7.58
2022-10-18T03:18:09.613Z,7.52
2022-10-18T03:20:36.916Z,7.52
2022-10-18T03:23:03.531Z,7.28
2022-10-18T03:25:30.105Z,7.23
2022-10-18T03:27:56.808Z,7.33
2022-10-18T03:30:23.410Z,7.34
2022-10-18T03:32:50.036Z,7.27
2022-10-18T03:35:16.790Z,7.17
2022-10-18T03:37:43.791Z,7.20
2022-10-18T03:40:10.713Z,7.07
2022-10-18T03:42:37.406Z,7.12
2022-10-18T03:45:04.960Z,7.06
2022-10-18T03:47:31.708Z,7.00
2022-10-18T03:49:58.590Z,6.86
2022-10-18T03:52:25.292Z,6.87
2022-10-18T03:54:52.053Z,6.98
2022-10-18T03:57:18.712Z,7.02
2022-10-18T03:59:45.381Z,6.95
2022-10-18T04:02:12.193Z,7.02
2022-10-18T04:04:38.798Z,7.01
2022-10-18T04:07:05.652Z,7.04
2022-10-18T04:09:32.298Z,7.05
2022-10-18T04:11:58.985Z,6.96
2022-10-18T04:14:25.713Z,6.99
2022-10-18T04:16:52.329Z,6.96
2022-10-18T04:19:19.917Z,6.87
2022-10-18T04:21:46.534Z,6.92
2022-10-18T04:24:13.147Z,6.87
2022-10-18T04:26:39.789Z,6.74
2022-10-18T04:29:06.922Z,6.72
2022-10-18T04:31:33.610Z,6.74
2022-10-18T04:34:00.254Z,6.80
2022-10-18T04:36:26.890Z,6.82
2022-10-18T04:38:53.565Z,6.79
2022-10-18T04:41:20.308Z,6.79
2022-10-18T04:43:47.123Z,6.86
2022-10-18T04:46:13.875Z,6.84
2022-10-18T04:48:40.557Z,6.91
2022-10-18T04:51:07.330Z,6.87
2022-10-18T04:53:33.928Z,7.02
2022-10-18T04:56:00.565Z,7.07
2022-10-18T04:58:27.256Z,7.09
2022-10-18T05:00:53.943Z,7.25
2022-10-18T05:03:20.610Z,7.27
2022-10-18T05:06:01.232Z,7.20
2022-10-18T05:08:29.073Z,7.41
2022-10-18T05:10:55.759Z,7.40
2022-10-18T05:13:22.459Z,7.39
2022-10-18T05:15:49.306Z,7.47
2022-10-18T05:18:16.054Z,7.49
2022-10-18T05:20:42.705Z,7.61
2022-10-18T05:23:12.055Z,7.62
2022-10-18T05:25:43.204Z,7.67
2022-10-18T05:28:34.761Z,7.77
2022-10-18T05:31:01.068Z,7.84
2022-10-18T05:33:27.687Z,7.98
2022-10-18T05:35:54.586Z,7.98
2022-10-18T05:38:21.461Z,8.03
2022-10-18T05:40:48.530Z,8.05
2022-10-18T05:43:15.554Z,8.13
2022-10-18T05:45:47.901Z,8.21
2022-10-18T05:48:14.807Z,8.34
2022-10-18T05:50:41.422Z,8.37
2022-10-18T05:53:18.345Z,8.51
2022-10-18T05:55:54.780Z,8.59
2022-10-18T05:58:21.399Z,8.70
2022-10-18T06:00:48.058Z,8.76
2022-10-18T06:03:14.679Z,8.87
2022-10-18T06:05:41.328Z,8.95
2022-10-18T06:08:10.273Z,8.78
2022-10-18T06:10:40.054Z,8.98
2022-10-18T06:13:06.755Z,9.10
2022-10-18T06:15:33.365Z,9.24
2022-10-18T06:18:00.096Z,9.41
2022-10-18T06:20:29.785Z,9.47
2022-10-18T06:22:56.390Z,9.41
2022-10-18T06:25:23.034Z,9.57
2022-10-18T06:27:49.654Z,9.63
2022-10-18T06:30:16.306Z,9.77
2022-10-18T06:32:42.900Z,9.88
2022-10-18T06:35:09.803Z,10.02
2022-10-18T06:37:38.224Z,10.14
2022-10-18T06:40:06.261Z,10.25
2022-10-18T06:42:33.119Z,10.33
2022-10-18T06:45:00.645Z,10.42
2022-10-18T06:47:27.293Z,10.57
2022-10-18T06:49:53.974Z,10.62
2022-10-18T06:52:25.717Z,10.72
2022-10-18T06:54:52.994Z,10.93
2022-10-18T06:57:21.003Z,11.05
2022-10-18T06:59:47.746Z,11.20
2022-10-18T07:02:17.252Z,11.30
2022-10-18T07:04:44.128Z,11.46
2022-10-18T07:07:10.870Z,11.47
2022-10-18T07:09:37.556Z,11.59
2022-10-18T07:12:04.505Z,11.76
2022-10-18T07:14:31.123Z,11.87
2022-10-18T07:17:00.875Z,11.93
2022-10-18T07:19:27.837Z,12.10
2022-10-18T07:21:54.511Z,12.01
2022-10-18T07:24:21.239Z,12.16
2022-10-18T07:26:47.933Z,12.31
2022-10-18T07:29:14.810Z,12.11
2022-10-18T07:31:41.506Z,11.93
2022-10-18T07:34:10.564Z,12.23
2022-10-18T07:36:37.226Z,12.33
2022-10-18T07:39:04.824Z,12.64
2022-10-18T07:41:33.713Z,12.67
2022-10-18T07:44:01.308Z,12.91
2022-10-18T07:46:27.959Z,12.94
2022-10-18T07:48:54.911Z,13.20
2022-10-18T07:51:22.157Z,13.28
2022-10-18T07:53:48.878Z,13.40
2022-10-18T07:56:21.023Z,13.54
2022-10-18T07:58:51.345Z,13.54
2022-10-18T08:01:18.545Z,13.43
2022-10-18T08:03:45.213Z,13.68
2022-10-18T08:06:13.988Z,13.79
2022-10-18T08:08:41.037Z,13.94
2022-10-18T08:11:17.281Z,14.08
2022-10-18T08:13:44.249Z,14.02
2022-10-18T08:16:17.585Z,14.15
2022-10-18T08:18:44.538Z,14.29
2022-10-18T08:21:12.710Z,14.26
2022-10-18T08:23:39.594Z,14.52
2022-10-18T08:26:09.515Z,14.67
2022-10-18T08:28:39.613Z,14.73
2022-10-18T08:31:11.133Z,14.75
2022-10-18T08:33:39.390Z,14.75
2022-10-18T08:36:07.960Z,14.73
2022-10-18T08:38:39.450Z,14.85
2022-10-18T08:41:30.969Z,15.05
2022-10-18T08:43:57.578Z,15.25
2022-10-18T08:46:25.056Z,15.36
2022-10-18T08:48:52.458Z,15.35
2022-10-18T08:51:28.509Z,15.29
2022-10-18T08:54:07.069Z,15.39
2022-10-18T08:56:34.130Z,15.51
2022-10-18T08:59:03.253Z,15.60
2022-10-18T09:01:39.231Z,15.68
2022-10-18T09:04:08.934Z,15.86
2022-10-18T09:06:40.536Z,15.80
2022-10-18T09:09:12.961Z,15.96
2022-10-18T09:12:31.541Z,16.13
2022-10-18T09:15:15.164Z,16.22
2022-10-18T09:17:56.974Z,16.16
2022-10-18T09:20:28.412Z,16.19
2022-10-18T09:23:19.894Z,16.18
2022-10-18T09:25:55.790Z,16.11
2022-10-18T09:28:56.553Z,16.37
2022-10-18T09:31:29.266Z,16.52
2022-10-18T09:34:03.122Z,16.53
2022-10-18T09:36:39.213Z,16.41
2022-10-18T09:39:18.802Z,16.49
2022-10-18T09:41:56.589Z,16.75
2022-10-18T09:44:33.854Z,16.77
2022-10-18T09:47:03.740Z,16.90
2022-10-18T09:49:33.547Z,17.10
2022-10-18T09:52:03.910Z,16.94
2022-10-18T09:54:41.600Z,17.14
2022-10-18T09:57:29.697Z,17.17
2022-10-18T09:59:58.170Z,17.33
2022-10-18T10:02:25.012Z,17.45
2022-10-18T10:04:52.357Z,17.48
2022-10-18T10:07:22.924Z,17.40
2022-10-18T10:09:57.101Z,17.38
2022-10-18T10:12:32.624Z,17.29
2022-10-18T10:15:19.009Z,17.43
2022-10-18T10:17:54.613Z,17.47
2022-10-18T10:20:24.215Z,17.57
2022-10-18T10:22:52.075Z,17.69
2022-10-18T10:25:52.249Z,17.68
2022-10-18T10:28:22.409Z,17.64
2022-10-18T10:30:49.142Z,17.69
2022-10-18T10:33:32.701Z,17.75
2022-10-18T10:36:01.030Z,17.93
2022-10-18T10:38:29.827Z,17.87
2022-10-18T10:40:56.984Z,17.92
2022-10-18T10:43:37.651Z,18.05
2022-10-18T10:46:19.074Z,18.17
2022-10-18T10:49:03.275Z,18.18
2022-10-18T10:51:40.201Z,18.14
2022-10-18T10:54:11.725Z,18.12
2022-10-18T10:57:01.729Z,17.71
2022-10-18T10:59:56.635Z,17.58
2022-10-18T11:02:34.155Z,17.71
2022-10-18T11:05:25.342Z,18.13
2022-10-18T11:08:03.253Z,17.65
2022-10-18T11:10:32.906Z,17.85
2022-10-18T11:13:25.342Z,17.88
2022-10-18T11:16:17.797Z,18.35
2022-10-18T11:18:48.089Z,18.22
2022-10-18T11:21:27.540Z,17.98
2022-10-18T11:23:55.989Z,18.02
2022-10-18T11:26:28.667Z,18.41
2022-10-18T11:29:08.925Z,18.47
2022-10-18T11:31:54.482Z,18.56
2022-10-18T11:34:36.640Z,18.59
2022-10-18T11:37:38.492Z,18.32
2022-10-18T11:40:30.276Z,18.57
2022-10-18T11:44:01.812Z,17.97
2022-10-18T11:46:41.805Z,18.65
2022-10-18T11:49:20.766Z,18.80
2022-10-18T11:52:09.372Z,18.59
2022-10-18T11:54:51.662Z,18.50
2022-10-18T11:57:36.493Z,18.69
2022-10-18T12:00:17.064Z,18.65
2022-10-18T12:02:56.227Z,18.69
2022-10-18T12:05:25.044Z,18.58
2022-10-18T12:08:05.990Z,18.48
2022-10-18T12:10:44.459Z,18.78
2022-10-18T12:13:35.420Z,18.83
2022-10-18T12:16:07.179Z,18.83
2022-10-18T12:18:35.389Z,18.72
2022-10-18T12:21:02.571Z,18.87
2022-10-18T12:23:29.267Z,18.93
2022-10-18T12:26:01.415Z,18.82
2022-10-18T12:28:37.654Z,18.86
2022-10-18T12:31:20.873Z,18.85
2022-10-18T12:33:53.520Z,18.86
2022-10-18T12:36:26.190Z,19.00
2022-10-18T12:38:55.746Z,19.02
2022-10-18T12:41:26.269Z,18.99
2022-10-18T12:43:55.412Z,18.68
2022-10-18T12:46:22.407Z,18.90
2022-10-18T12:49:10.520Z,19.03
2022-10-18T12:51:53.132Z,19.04
2022-10-18T12:54:25.664Z,19.03
2022-10-18T12:56:52.576Z,19.01
2022-10-18T12:59:19.650Z,18.80
2022-10-18T13:01:55.312Z,18.86
2022-10-18T13:04:28.296Z,18.92
2022-10-18T13:06:57.676Z,18.93
2022-10-18T13:09:29.199Z,18.84
2022-10-18T13:12:02.083Z,18.95
2022-10-18T13:14:48.225Z,18.93
2022-10-18T13:17:32.231Z,19.00
2022-10-18T13:20:24.192Z,18.99
2022-10-18T13:22:54.310Z,18.95
2022-10-18T13:25:41.339Z,18.82
2022-10-18T13:28:26.647Z,18.88
2022-10-18T13:31:13.517Z,18.84
2022-10-18T13:33:41.483Z,18.75
2022-10-18T13:36:22.621Z,18.75
2022-10-18T13:39:05.298Z,18.61
2022-10-18T13:41:56.559Z,18.47
2022-10-18T13:44:24.575Z,18.40
2022-10-18T13:46:51.608Z,18.29
2022-10-18T13:49:24.342Z,18.12
2022-10-18T13:52:15.387Z,17.98
2022-10-18T13:54:57.879Z,17.98
2022-10-18T13:57:48.674Z,17.83
2022-10-18T14:00:36.009Z,17.79
2022-10-18T14:03:37.933Z,17.79
2022-10-18T14:06:12.824Z,17.71
2022-10-18T14:08:48.413Z,17.65
2022-10-18T14:11:33.662Z,17.55
2022-10-18T14:14:12.246Z,17.54
2022-10-18T14:17:03.865Z,17.48
2022-10-18T14:19:41.234Z,17.34
2022-10-18T14:22:18.241Z,17.33
2022-10-18T14:24:47.596Z,17.21
2022-10-18T14:27:20.231Z,17.09
2022-10-18T14:29:48.200Z,17.03
2022-10-18T14:32:29.361Z,16.91
2022-10-18T14:35:27.354Z,16.64
2022-10-18T14:37:43.229Z,16.47
2022-10-18T14:40:36.188Z,16.56
2022-10-18T14:43:14.055Z,16.38
2022-10-18T14:45:41.754Z,16.40
2022-10-18T14:48:22.129Z,16.30
2022-10-18T14:50:59.253Z,16.33
2022-10-18T14:53:32.468Z,16.22
2022-10-18T14:56:09.448Z,16.17
2022-10-18T14:58:37.847Z,15.97
2022-10-18T15:01:04.954Z,15.88
2022-10-18T15:03:34.801Z,15.78
2022-10-18T15:06:05.243Z,15.41
2022-10-18T15:08:42.225Z,15.46
2022-10-18T15:11:13.364Z,15.39
2022-10-18T15:13:53.910Z,15.32
2022-10-18T15:16:24.013Z,15.26
2022-10-18T15:19:33.166Z,15.06
2022-10-18T15:22:31.210Z,14.80
2022-10-18T15:25:17.122Z,14.82
2022-10-18T15:27:47.083Z,14.85
2022-10-18T15:30:27.639Z,14.77
2022-10-18T15:32:59.385Z,14.72
2022-10-18T15:35:32.001Z,14.58
2022-10-18T15:38:03.787Z,14.52
2022-10-18T15:40:32.189Z,14.43
2022-10-18T15:43:01.438Z,14.43
2022-10-18T15:45:36.827Z,14.31
2022-10-18T15:48:06.449Z,14.26
2022-10-18T15:50:47.776Z,14.11
2022-10-18T15:53:20.801Z,14.12
2022-10-18T15:56:13.833Z,14.13
2022-10-18T15:58:47.899Z,14.05
2022-10-18T16:01:17.814Z,14.06
2022-10-18T16:03:45.954Z,13.92
2022-10-18T16:06:16.002Z,13.82
2022-10-18T16:08:47.507Z,13.79
2022-10-18T16:11:22.742Z,13.77
2022-10-18T16:13:50.075Z,13.76
2022-10-18T16:16:18.430Z,13.75
2022-10-18T16:18:45.179Z,13.74
2022-10-18T16:21:27.088Z,13.68
2022-10-18T16:23:54.292Z,13.53
2022-10-18T16:26:22.266Z,13.56
2022-10-18T16:28:49.719Z,13.44
2022-10-18T16:31:18.806Z,13.53
2022-10-18T16:33:46.388Z,13.51
2022-10-18T16:36:21.070Z,13.44
2022-10-18T16:38:48.209Z,13.38
2022-10-18T16:41:15.951Z,13.32
2022-10-18T16:43:44.322Z,13.24
2022-10-18T16:46:17.258Z,13.20
2022-10-18T16:48:44.378Z,13.08
2022-10-18T16:51:11.602Z,13.17
2022-10-18T16:53:38.437Z,13.15
2022-10-18T16:56:06.854Z,13.10
2022-10-18T16:58:33.745Z,13.18
2022-10-18T17:01:01.939Z,13.24
2022-10-18T17:03:30.805Z,13.22
2022-10-18T17:05:57.532Z,13.22
2022-10-18T17:08:27.198Z,13.18
2022-10-18T17:10:56.417Z,13.15
2022-10-18T17:13:23.857Z,13.10
2022-10-18T17:15:50.873Z,13.07
2022-10-18T17:18:21.810Z,13.24
2022-10-18T17:20:49.111Z,13.18
2022-10-18T17:23:15.839Z,13.26
2022-10-18T17:25:57.848Z,13.25
2022-10-18T17:28:33.327Z,13.26
2022-10-18T17:31:00.035Z,13.15
2022-10-18T17:33:26.736Z,13.17
2022-10-18T17:35:53.357Z,13.18
2022-10-18T17:38:20.012Z,13.15
2022-10-18T17:40:46.650Z,13.17
2022-10-18T17:43:13.978Z,13.05
2022-10-18T17:45:48.344Z,13.03
2022-10-18T17:48:14.956Z,12.79
2022-10-18T17:50:41.756Z,12.86
2022-10-18T17:53:08.427Z,12.92
2022-10-18T17:55:35.141Z,12.82
2022-10-18T17:58:01.879Z,12.78
2022-10-18T18:00:28.963Z,12.66
2022-10-18T18:02:59.822Z,12.66
2022-10-18T18:05:32.882Z,12.66
2022-10-18T18:08:02.959Z,12.82
2022-10-18T18:10:33.276Z,12.68
2022-10-18T18:13:00.327Z,12.87
2022-10-18T18:15:27.037Z,12.98
2022-10-18T18:17:57.021Z,12.86
2022-10-18T18:20:24.564Z,12.72
2022-10-18T18:22:51.849Z,12.76
2022-10-18T18:25:18.650Z,12.62
2022-10-18T18:27:45.263Z,12.53
2022-10-18T18:30:12.186Z,12.56
2022-10-18T18:32:38.804Z,12.49
2022-10-18T18:35:05.817Z,12.47
2022-10-18T18:37:32.507Z,12.30
2022-10-18T18:39:59.150Z,12.29
2022-10-18T18:42:25.793Z,12.33
2022-10-18T18:44:52.459Z,12.26
2022-10-18T18:47:21.745Z,12.28
2022-10-18T18:49:49.059Z,12.18
2022-10-18T18:52:15.657Z,12.03
2022-10-18T18:54:42.246Z,11.96
2022-10-18T18:57:08.883Z,11.92
2022-10-18T18:59:35.515Z,11.84
2022-10-18T19:02:02.106Z,11.80
2022-10-18T19:04:29.179Z,11.99
2022-10-18T19:07:07.661Z,12.00
2022-10-18T19:09:37.929Z,11.82
2022-10-18T19:12:05.319Z,11.75
2022-10-18T19:14:33.510Z,11.89
2022-10-18T19:17:01.531Z,11.88
2022-10-18T19:19:29.998Z,11.83
2022-10-18T19:22:01.195Z,11.76
2022-10-18T19:24:30.342Z,11.64
2022-10-18T19:27:02.122Z,11.98
2022-10-18T19:29:39.534Z,11.90
2022-10-18T19:32:08.567Z,11.82
2022-10-18T19:34:35.649Z,11.85
2022-10-18T19:37:02.337Z,11.77
2022-10-18T19:39:32.192Z,11.76
2022-10-18T19:42:00.499Z,11.88
2022-10-18T19:44:30.013Z,11.90
2022-10-18T19:46:57.116Z,11.83
2022-10-18T19:49:24.439Z,11.90
2022-10-18T19:51:51.058Z,11.82
2022-10-18T19:54:17.864Z,11.79
2022-10-18T19:56:44.654Z,11.88
2022-10-18T19:59:12.388Z,11.88
2022-10-18T20:01:39.369Z,11.80
2022-10-18T20:04:07.591Z,11.82
2022-10-18T20:06:35.387Z,11.79
2022-10-18T20:09:02.558Z,11.75
2022-10-18T20:11:29.609Z,11.83
2022-10-18T20:13:57.170Z,11.73
2022-10-18T20:16:28.623Z,11.79
2022-10-18T20:19:00.653Z,11.83
2022-10-18T20:21:28.883Z,11.82
2022-10-18T20:23:56.096Z,11.81
2022-10-18T20:26:23.442Z,11.70
2022-10-18T20:28:57.163Z,11.81
2022-10-18T20:31:28.832Z,11.89
2022-10-18T20:33:57.875Z,11.85
2022-10-18T20:36:24.732Z,11.87
2022-10-18T20:38:51.519Z,11.76
2022-10-18T20:41:23.346Z,11.76
2022-10-18T20:43:59.396Z,11.78
2022-10-18T20:46:28.058Z,11.76
2022-10-18T20:48:55.010Z,11.68
2022-10-18T20:51:22.385Z,11.67
2022-10-18T20:53:49.612Z,11.77
2022-10-18T20:56:20.473Z,11.73
2022-10-18T20:58:48.888Z,11.68
2022-10-18T21:01:30.253Z,11.61
2022-10-18T21:03:58.868Z,11.65
2022-10-18T21:06:29.315Z,11.60
2022-10-18T21:08:58.110Z,11.55
2022-10-18T21:11:26.186Z,11.70
2022-10-18T21:13:58.934Z,11.55
2022-10-18T21:16:26.722Z,11.69
2022-10-18T21:18:53.796Z,11.63
2022-10-18T21:21:24.592Z,11.60
2022-10-18T21:23:52.070Z,11.60
2022-10-18T21:26:23.985Z,11.58
2022-10-18T21:28:52.032Z,11.43
2022-10-18T21:31:21.200Z,11.26
2022-10-18T21:33:48.458Z,11.55
2022-10-18T21:36:15.197Z,11.61
2022-10-18T21:38:44.992Z,11.55
2022-10-18T21:41:13.353Z,11.43
2022-10-18T21:43:41.861Z,11.46
2022-10-18T21:46:10.309Z,11.44
2022-10-18T21:48:37.559Z,11.44
2022-10-18T21:51:07.911Z,11.41
2022-10-18T21:53:35.397Z,11.46
2022-10-18T21:56:10.285Z,11.36
2022-10-18T21:58:37.425Z,11.52
2022-10-18T22:01:36.605Z,11.41
2022-10-18T22:04:05.555Z,11.27
2022-10-18T22:09:05.738Z,11.35
2022-10-18T22:11:43.700Z,11.22
2022-10-18T22:14:10.370Z,11.18
2022-10-18T22:16:37.442Z,11.15
2022-10-18T22:19:05.450Z,11.19
2022-10-18T22:21:32.461Z,11.15
2022-10-18T22:24:00.115Z,11.16
2022-10-18T22:26:27.907Z,11.17
2022-10-18T22:28:59.493Z,11.09
2022-10-18T22:31:28.968Z,11.12
2022-10-18T22:33:58.173Z,10.97
2022-10-18T22:36:25.894Z,10.92
2022-10-18T22:38:52.930Z,10.92
2022-10-18T22:41:19.713Z,10.96
2022-10-18T22:43:47.786Z,10.89
2022-10-18T22:46:15.346Z,10.85
2022-10-18T22:48:42.100Z,10.82
2022-10-18T22:51:09.322Z,10.74
2022-10-18T22:53:37.546Z,10.83
2022-10-18T22:56:05.032Z,10.73
2022-10-18T22:58:31.909Z,10.75
2022-10-18T23:01:03.750Z,10.79
2022-10-18T23:03:30.411Z,10.80
2022-10-18T23:05:57.740Z,10.93
2022-10-18T23:08:24.341Z,10.70
2022-10-18T23:10:56.078Z,10.84
2022-10-18T23:13:23.821Z,10.77
2022-10-18T23:15:51.069Z,10.66
2022-10-18T23:18:18.185Z,10.74
2022-10-18T23:20:45.297Z,10.73
2022-10-18T23:23:12.824Z,10.81
2022-10-18T23:25:39.871Z,10.77
2022-10-18T23:28:06.898Z,10.65
2022-10-18T23:30:34.043Z,10.77
2022-10-18T23:33:00.880Z,10.94
2022-10-18T23:35:28.858Z,11.02
2022-10-18T23:37:55.521Z,10.99
2022-10-18T23:40:25.112Z,10.89
2022-10-18T23:42:51.711Z,10.77
2022-10-18T23:45:18.353Z,10.84
2022-10-18T23:47:45.044Z,10.88
2022-10-18T23:50:11.645Z,10.96
2022-10-18T23:52:38.293Z,11.07
2022-10-18T23:55:05.480Z,11.15
2022-10-18T23:57:32.299Z,11.16
2022-10-18T23:59:59.148Z,11.15
